Time;durP1;ratioP1;P1;durP2;ratioP2;P2;SDS_P1;SDS_P2;PMS_P1;PMS_P2;Temp;Humidity;BMP_temperature;BMP_pressure;BME280_temperature;BME280_humidity;BME280_pressure;Samples;Min_cycle;Max_cycle;Signal;HPM_P1;HPM_P2
2024/04/16 00:00:09;;;;;;;17.13;9.57;;;;;;;;;;13387375;22;20432;-82
2024/04/16 00:05:16;;;;;;;16.07;10.10;;;;;;;;;;13387179;22;20359;-81
2024/04/16 00:10:19;;;;;;;18.10;9.90;;;;;;;;;;13387630;22;20573;-82
2024/04/16 00:15:24;;;;;;;13.20;9.33;;;;;;;;;;13386767;22;20375;-81
2024/04/16 00:20:30;;;;;;;16.60;10.67;;;;;;;;;;13379078;22;20371;-81
2024/04/16 00:25:34;;;;;;;20.50;10.45;;;;;;;;;;13383406;22;20453;-81
2024/04/16 00:30:38;;;;;;;17.97;10.90;;;;;;;;;;13385602;22;20379;-81
2024/04/16 00:35:45;;;;;;;18.80;11.40;;;;;;;;;;13383862;22;20364;-82
2024/04/16 00:40:49;;;;;;;18.03;11.47;;;;;;;;;;13383421;22;20445;-81
2024/04/16 00:45:54;;;;;;;19.40;12.43;;;;;;;;;;13384166;22;20461;-81
2024/04/16 00:51:02;;;;;;;17.00;10.48;;;;;;;;;;13384283;22;20375;-81
2024/04/16 00:56:08;;;;;;;20.47;11.10;;;;;;;;;;13384914;22;20449;-79
2024/04/16 01:01:12;;;;;;;20.80;11.27;;;;;;;;;;13387581;22;20508;-81
2024/04/16 01:06:19;;;;;;;18.48;11.05;;;;;;;;;;13387587;22;20371;-81
2024/04/16 01:11:26;;;;;;;17.02;10.95;;;;;;;;;;13387988;22;20379;-81
2024/04/16 01:16:30;;;;;;;20.55;11.50;;;;;;;;;;13388411;22;20392;-81
2024/04/16 01:21:37;;;;;;;16.70;11.23;;;;;;;;;;13386982;22;20465;-81
2024/04/16 01:26:43;;;;;;;18.58;11.85;;;;;;;;;;13387884;22;20331;-81
2024/04/16 01:31:47;;;;;;;21.80;10.60;;;;;;;;;;13387181;22;20379;-81
2024/04/16 01:36:51;;;;;;;19.48;12.38;;;;;;;;;;13383435;22;20367;-81
2024/04/16 01:41:57;;;;;;;19.73;12.95;;;;;;;;;;13387131;22;20366;-81
2024/04/16 01:47:02;;;;;;;21.58;12.43;;;;;;;;;;13386282;22;20457;-79
2024/04/16 01:52:06;;;;;;;17.83;11.88;;;;;;;;;;13381475;22;21089;-79
2024/04/16 01:57:13;;;;;;;21.45;12.73;;;;;;;;;;13382454;22;20837;-80
2024/04/16 02:02:17;;;;;;;19.98;12.32;;;;;;;;;;13385533;22;20453;-79
2024/04/16 02:07:20;;;;;;;22.55;13.30;;;;;;;;;;13381348;22;20438;-79
2024/04/16 02:12:27;;;;;;;20.15;12.60;;;;;;;;;;13387149;22;20371;-80
2024/04/16 02:17:31;;;;;;;17.52;12.07;;;;;;;;;;13386534;22;20406;-79
2024/04/16 02:22:35;;;;;;;19.75;12.23;;;;;;;;;;13386093;22;20376;-80
2024/04/16 02:27:41;;;;;;;15.13;9.80;;;;;;;;;;13385336;22;20427;-79
2024/04/16 02:32:45;;;;;;;14.37;9.53;;;;;;;;;;13387745;22;20686;-81
2024/04/16 02:37:49;;;;;;;15.98;9.57;;;;;;;;;;13385057;22;20363;-81
2024/04/16 02:42:55;;;;;;;16.95;10.52;;;;;;;;;;13378556;22;20374;-80
2024/04/16 02:47:59;;;;;;;15.35;9.90;;;;;;;;;;13378206;22;20420;-80
2024/04/16 02:53:03;;;;;;;14.68;10.13;;;;;;;;;;13385694;22;20430;-80
2024/04/16 02:58:10;;;;;;;15.53;10.67;;;;;;;;;;13385001;22;20409;-79
2024/04/16 03:03:14;;;;;;;17.52;10.98;;;;;;;;;;13379318;22;20375;-80
2024/04/16 03:08:18;;;;;;;16.48;10.63;;;;;;;;;;13378172;22;20396;-80
2024/04/16 03:13:24;;;;;;;14.75;9.98;;;;;;;;;;13379949;22;20500;-80
2024/04/16 03:18:28;;;;;;;16.45;10.43;;;;;;;;;;13385068;22;20443;-80
2024/04/16 03:23:32;;;;;;;17.50;9.55;;;;;;;;;;13384874;22;20884;-79
2024/04/16 03:28:38;;;;;;;16.90;9.60;;;;;;;;;;13385107;22;20418;-80
2024/04/16 03:33:42;;;;;;;16.23;9.97;;;;;;;;;;13385741;22;20476;-80
2024/04/16 03:38:46;;;;;;;16.15;9.95;;;;;;;;;;13385839;22;20375;-80
2024/04/16 03:43:54;;;;;;;18.63;10.70;;;;;;;;;;13386199;22;20379;-80
2024/04/16 03:48:58;;;;;;;18.60;10.77;;;;;;;;;;13385571;22;20773;-80
2024/04/16 03:54:02;;;;;;;12.50;9.88;;;;;;;;;;13386043;22;20343;-79
2024/04/16 03:59:36;;;;;;;15.43;9.73;;;;;;;;;;13385426;22;20375;-80
2024/04/16 04:04:40;;;;;;;15.50;9.68;;;;;;;;;;13384340;22;20849;-80
2024/04/16 04:09:44;;;;;;;23.33;9.90;;;;;;;;;;13387030;22;20416;-80
2024/04/16 04:14:51;;;;;;;19.17;9.98;;;;;;;;;;13385931;22;20864;-80
2024/04/16 04:19:55;;;;;;;17.83;9.77;;;;;;;;;;13384574;22;20436;-80
2024/04/16 04:24:59;;;;;;;16.77;9.80;;;;;;;;;;13383423;22;20705;-79
2024/04/16 04:30:06;;;;;;;14.15;9.57;;;;;;;;;;13384567;22;20799;-79
2024/04/16 04:35:10;;;;;;;19.90;10.23;;;;;;;;;;13382794;22;20367;-80
2024/04/16 04:40:14;;;;;;;14.85;9.55;;;;;;;;;;13387727;22;20426;-80
2024/04/16 04:45:20;;;;;;;16.58;9.25;;;;;;;;;;13388802;22;20850;-80
2024/04/16 04:50:24;;;;;;;16.90;11.25;;;;;;;;;;13387801;22;20443;-80
2024/04/16 04:55:28;;;;;;;18.27;10.48;;;;;;;;;;13385406;22;20693;-80
2024/04/16 05:00:36;;;;;;;21.83;11.17;;;;;;;;;;13383946;22;20351;-80
2024/04/16 05:05:41;;;;;;;16.13;9.45;;;;;;;;;;13385286;22;20458;-79
2024/04/16 05:10:51;;;;;;;14.07;9.93;;;;;;;;;;13384969;22;20375;-80
2024/04/16 05:15:58;;;;;;;16.60;9.98;;;;;;;;;;13386741;22;20379;-80
2024/04/16 05:21:02;;;;;;;15.10;9.30;;;;;;;;;;13387068;22;21061;-81
2024/04/16 05:26:07;;;;;;;17.05;10.30;;;;;;;;;;13384165;22;20459;-80
2024/04/16 05:31:13;;;;;;;18.13;10.05;;;;;;;;;;13385614;22;20889;-83
2024/04/16 05:36:17;;;;;;;15.98;9.52;;;;;;;;;;13383722;22;20355;-81
2024/04/16 05:41:21;;;;;;;17.63;10.85;;;;;;;;;;13383570;22;20472;-81
2024/04/16 05:46:27;;;;;;;17.70;10.77;;;;;;;;;;13382955;22;20363;-80
2024/04/16 05:51:31;;;;;;;18.77;10.73;;;;;;;;;;13381340;22;20383;-81
2024/04/16 05:56:36;;;;;;;18.00;11.20;;;;;;;;;;13381044;22;20841;-82
2024/04/16 06:01:43;;;;;;;21.10;10.05;;;;;;;;;;13379559;22;20371;-81
2024/04/16 06:06:47;;;;;;;19.00;10.57;;;;;;;;;;13381773;22;20375;-80
2024/04/16 06:11:51;;;;;;;16.75;10.07;;;;;;;;;;13385404;22;20437;-79
2024/04/16 06:16:57;;;;;;;14.93;10.20;;;;;;;;;;13385638;22;20877;-79
2024/04/16 06:22:01;;;;;;;17.92;10.68;;;;;;;;;;13386519;22;20339;-81
2024/04/16 06:27:05;;;;;;;17.00;10.37;;;;;;;;;;13387729;22;20364;-79
2024/04/16 06:32:12;;;;;;;15.77;10.83;;;;;;;;;;13385633;22;20785;-80
2024/04/16 06:37:16;;;;;;;16.07;10.37;;;;;;;;;;13386150;22;20383;-79
2024/04/16 06:42:20;;;;;;;17.33;10.70;;;;;;;;;;13386690;22;20432;-79
2024/04/16 06:47:27;;;;;;;18.88;11.95;;;;;;;;;;13385186;22;20460;-80
2024/04/16 06:52:31;;;;;;;17.40;11.00;;;;;;;;;;13386004;22;20355;-79
2024/04/16 06:57:35;;;;;;;15.02;10.85;;;;;;;;;;13385571;22;20441;-80
2024/04/16 07:02:41;;;;;;;16.52;10.68;;;;;;;;;;13384850;22;20359;-80
2024/04/16 07:07:45;;;;;;;17.98;10.45;;;;;;;;;;13384809;22;20465;-80
2024/04/16 07:12:49;;;;;;;17.63;9.97;;;;;;;;;;13384666;22;21078;-80
2024/04/16 07:17:56;;;;;;;14.70;9.90;;;;;;;;;;13383989;22;20964;-79
2024/04/16 07:23:00;;;;;;;17.77;10.07;;;;;;;;;;13384008;22;20379;-79
2024/04/16 07:28:04;;;;;;;15.15;9.73;;;;;;;;;;13385728;22;20437;-80
2024/04/16 07:33:10;;;;;;;18.40;10.13;;;;;;;;;;13379594;22;20363;-79
2024/04/16 07:38:16;;;;;;;15.00;10.32;;;;;;;;;;13382506;22;20457;-80
2024/04/16 07:43:20;;;;;;;19.17;10.13;;;;;;;;;;13384238;22;20506;-80
2024/04/16 07:48:27;;;;;;;13.17;8.90;;;;;;;;;;13383116;22;20375;-80
2024/04/16 07:53:32;;;;;;;16.45;9.40;;;;;;;;;;13383261;22;20371;-81
2024/04/16 07:58:36;;;;;;;21.23;9.82;;;;;;;;;;13383161;22;20363;-79
2024/04/16 08:03:42;;;;;;;14.60;9.23;;;;;;;;;;13384478;22;20376;-80
2024/04/16 08:08:46;;;;;;;15.47;9.20;;;;;;;;;;13383727;22;20363;-80
2024/04/16 08:13:50;;;;;;;19.58;10.38;;;;;;;;;;13384058;22;20425;-80
2024/04/16 08:18:56;;;;;;;16.30;10.27;;;;;;;;;;13384553;22;20383;-80
2024/04/16 08:24:01;;;;;;;14.93;9.93;;;;;;;;;;13382297;22;20391;-80
2024/04/16 08:29:05;;;;;;;21.37;9.83;;;;;;;;;;13382394;22;20359;-81
2024/04/16 08:34:11;;;;;;;15.73;10.07;;;;;;;;;;13383785;22;20367;-80
2024/04/16 08:39:15;;;;;;;15.70;10.75;;;;;;;;;;13384049;22;20367;-81
2024/04/16 08:44:21;;;;;;;16.13;10.80;;;;;;;;;;13382256;22;20387;-81
2024/04/16 08:49:30;;;;;;;15.70;10.32;;;;;;;;;;13384955;22;20434;-80
2024/04/16 08:54:35;;;;;;;17.50;10.00;;;;;;;;;;13384632;22;20387;-80
2024/04/16 08:59:39;;;;;;;16.73;11.00;;;;;;;;;;13384904;22;20454;-80
2024/04/16 09:04:47;;;;;;;16.90;11.50;;;;;;;;;;13379971;22;20951;-81
2024/04/16 09:09:50;;;;;;;16.42;11.25;;;;;;;;;;13383912;22;20359;-80
2024/04/16 09:14:54;;;;;;;16.42;10.50;;;;;;;;;;13384401;22;20856;-80
2024/04/16 09:20:05;;;;;;;20.27;10.80;;;;;;;;;;13385694;22;20431;-81
2024/04/16 09:25:10;;;;;;;17.87;10.87;;;;;;;;;;13387255;22;20367;-80
2024/04/16 09:30:15;;;;;;;18.73;11.65;;;;;;;;;;13387645;22;20359;-80
2024/04/16 09:35:27;;;;;;;18.30;12.00;;;;;;;;;;13387571;22;20530;-81
2024/04/16 09:40:31;;;;;;;16.10;11.53;;;;;;;;;;13387457;22;20371;-80
2024/04/16 09:45:37;;;;;;;19.27;11.63;;;;;;;;;;13386992;22;20475;-80
2024/04/16 09:50:44;;;;;;;21.95;12.77;;;;;;;;;;13386228;22;20470;-80
2024/04/16 09:55:51;;;;;;;18.42;11.55;;;;;;;;;;13388134;22;20437;-80
2024/04/16 10:00:56;;;;;;;17.75;12.10;;;;;;;;;;13387523;22;20355;-81
2024/04/16 10:06:03;;;;;;;18.17;12.50;;;;;;;;;;13387956;22;20752;-80
2024/04/16 10:11:07;;;;;;;19.33;12.87;;;;;;;;;;13388229;22;20355;-81
2024/04/16 10:16:14;;;;;;;16.27;11.60;;;;;;;;;;13386698;22;20363;-80
2024/04/16 10:21:26;;;;;;;17.90;10.98;;;;;;;;;;13386725;22;20920;-81
2024/04/16 10:26:33;;;;;;;19.50;12.13;;;;;;;;;;13384985;22;20371;-81
2024/04/16 10:31:40;;;;;;;18.83;11.95;;;;;;;;;;13386566;22;20991;-81
2024/04/16 10:36:47;;;;;;;16.37;11.70;;;;;;;;;;13384616;22;20412;-81
2024/04/16 10:41:55;;;;;;;23.77;14.03;;;;;;;;;;13386957;22;20430;-81
2024/04/16 10:47:00;;;;;;;24.70;15.43;;;;;;;;;;13385949;22;20351;-80
2024/04/16 10:52:12;;;;;;;19.67;13.73;;;;;;;;;;13385592;22;20461;-80
2024/04/16 10:57:16;;;;;;;23.52;13.45;;;;;;;;;;13385563;22;20375;-80
2024/04/16 11:02:20;;;;;;;21.67;11.85;;;;;;;;;;13385331;22;20795;-81
2024/04/16 11:07:27;;;;;;;19.77;13.05;;;;;;;;;;13386177;22;20766;-80
2024/04/16 11:12:31;;;;;;;20.70;13.53;;;;;;;;;;13386119;22;20375;-80
2024/04/16 11:17:35;;;;;;;21.07;12.70;;;;;;;;;;13385672;22;20422;-80
2024/04/16 11:22:42;;;;;;;19.48;13.13;;;;;;;;;;13385888;22;20911;-80
2024/04/16 11:27:46;;;;;;;20.77;14.00;;;;;;;;;;13383283;22;20367;-80
2024/04/16 11:32:50;;;;;;;21.57;14.20;;;;;;;;;;13385639;22;20449;-80
2024/04/16 11:37:57;;;;;;;20.10;13.70;;;;;;;;;;13385165;22;20378;-79
2024/04/16 11:43:01;;;;;;;23.15;14.02;;;;;;;;;;13385200;22;20671;-80
2024/04/16 11:48:05;;;;;;;18.02;12.80;;;;;;;;;;13383418;22;20371;-80
2024/04/16 11:53:11;;;;;;;20.63;12.80;;;;;;;;;;13383757;22;20434;-80
2024/04/16 11:58:15;;;;;;;16.33;12.43;;;;;;;;;;13384646;22;20898;-80
2024/04/16 12:03:19;;;;;;;20.55;11.32;;;;;;;;;;13383582;22;20355;-80
2024/04/16 12:08:26;;;;;;;18.75;11.43;;;;;;;;;;13380266;22;20367;-81
2024/04/16 12:13:30;;;;;;;16.83;11.50;;;;;;;;;;13380381;22;20781;-79
2024/04/16 12:18:34;;;;;;;10.93;6.72;;;;;;;;;;13377900;22;20414;-80
2024/04/16 12:23:41;;;;;;;13.00;5.67;;;;;;;;;;13381296;22;20445;-80
2024/04/16 12:28:45;;;;;;;8.98;5.28;;;;;;;;;;13383474;22;20923;-81
2024/04/16 12:33:49;;;;;;;31.67;5.87;;;;;;;;;;13368517;22;20979;-80
2024/04/16 12:38:56;;;;;;;2.30;1.27;;;;;;;;;;13366546;21;20351;-80
2024/04/16 12:44:00;;;;;;;5.68;1.05;;;;;;;;;;13367271;21;20339;-81
2024/04/16 12:49:05;;;;;;;6.43;0.80;;;;;;;;;;13369366;22;20374;-80
2024/04/16 12:54:12;;;;;;;4.32;1.70;;;;;;;;;;13378660;22;20367;-81
2024/04/16 12:59:16;;;;;;;3.47;0.98;;;;;;;;;;13378278;22;20374;-78
2024/04/16 13:04:20;;;;;;;2.70;0.80;;;;;;;;;;13374311;22;20375;-80
2024/04/16 13:09:27;;;;;;;3.03;0.90;;;;;;;;;;13374439;22;20331;-81
2024/04/16 13:14:31;;;;;;;1.38;1.00;;;;;;;;;;13372974;22;21176;-81
2024/04/16 13:19:35;;;;;;;3.53;0.83;;;;;;;;;;13376085;22;21219;-81
2024/04/16 13:24:41;;;;;;;2.72;0.63;;;;;;;;;;13373730;22;20432;-81
2024/04/16 13:29:45;;;;;;;2.30;0.70;;;;;;;;;;13373603;22;20332;-80
2024/04/16 13:34:49;;;;;;;4.13;0.85;;;;;;;;;;13374371;22;20846;-82
2024/04/16 13:39:56;;;;;;;6.13;1.00;;;;;;;;;;13375478;22;20340;-81
2024/04/16 13:44:59;;;;;;;0.68;0.60;;;;;;;;;;13374598;22;20379;-81
2024/04/16 13:50:03;;;;;;;1.33;0.50;;;;;;;;;;13376690;22;20336;-82
2024/04/16 13:55:10;;;;;;;2.20;0.88;;;;;;;;;;13376056;22;20393;-81
2024/04/16 14:00:16;;;;;;;2.03;0.70;;;;;;;;;;13376278;22;20435;-82
2024/04/16 14:05:20;;;;;;;0.60;0.30;;;;;;;;;;13376894;22;20637;-81
2024/04/16 14:10:26;;;;;;;1.33;0.50;;;;;;;;;;13372081;22;20909;-82
2024/04/16 14:15:31;;;;;;;2.00;0.30;;;;;;;;;;13366957;22;20434;-82
2024/04/16 14:20:34;;;;;;;1.52;0.43;;;;;;;;;;13374200;22;20391;-81
2024/04/16 14:25:41;;;;;;;1.20;0.40;;;;;;;;;;13375106;22;20445;-81
2024/04/16 14:30:45;;;;;;;0.50;0.40;;;;;;;;;;13373170;22;20397;-81
2024/04/16 14:35:49;;;;;;;1.48;0.40;;;;;;;;;;13375575;22;20375;-80
2024/04/16 14:40:55;;;;;;;2.17;0.53;;;;;;;;;;13373488;22;20618;-81
2024/04/16 14:45:59;;;;;;;2.95;0.70;;;;;;;;;;13372476;22;20838;-81
2024/04/16 14:51:05;;;;;;;2.67;0.50;;;;;;;;;;13369964;22;20398;-81
2024/04/16 14:56:11;;;;;;;1.60;0.30;;;;;;;;;;13375467;22;20445;-81
2024/04/16 15:01:15;;;;;;;1.20;0.32;;;;;;;;;;13371338;22;20427;-80
2024/04/16 15:06:19;;;;;;;3.13;0.90;;;;;;;;;;13359085;22;20331;-79
2024/04/16 15:11:26;;;;;;;7.23;1.07;;;;;;;;;;13363766;22;20780;-80
2024/04/16 15:16:30;;;;;;;3.10;0.70;;;;;;;;;;13368078;22;20907;-80
2024/04/16 15:21:34;;;;;;;1.80;0.47;;;;;;;;;;13362811;22;20427;-80
2024/04/16 15:26:41;;;;;;;0.85;0.20;;;;;;;;;;13371023;22;20423;-79
2024/04/16 15:31:46;;;;;;;1.30;0.20;;;;;;;;;;13366080;22;20872;-79
2024/04/16 15:36:50;;;;;;;1.97;0.40;;;;;;;;;;13374146;22;20976;-79
2024/04/16 15:41:56;;;;;;;2.10;0.10;;;;;;;;;;13372045;22;20733;-80
2024/04/16 15:47:02;;;;;;;2.63;0.30;;;;;;;;;;13365833;22;20335;-79
2024/04/16 15:52:06;;;;;;;1.00;0.10;;;;;;;;;;13365151;21;20348;-79
2024/04/16 15:57:13;;;;;;;3.95;0.20;;;;;;;;;;13362984;21;20340;-79
2024/04/16 16:02:17;;;;;;;1.85;0.20;;;;;;;;;;13362826;21;20331;-80
2024/04/16 16:07:21;;;;;;;3.27;0.63;;;;;;;;;;13363690;21;20914;-80
2024/04/16 16:12:28;;;;;;;0.28;0.13;;;;;;;;;;13361082;21;21012;-80
2024/04/16 16:17:32;;;;;;;1.10;0.20;;;;;;;;;;13364470;21;20419;-80
2024/04/16 16:22:36;;;;;;;1.60;0.10;;;;;;;;;;13368019;21;20339;-79
2024/04/16 16:27:44;;;;;;;0.90;0.17;;;;;;;;;;13366725;21;20949;-79
2024/04/16 16:32:48;;;;;;;1.10;0.10;;;;;;;;;;13373853;21;20376;-80
2024/04/16 16:37:52;;;;;;;0.80;0.20;;;;;;;;;;13374523;22;20330;-79
2024/04/16 16:42:59;;;;;;;1.10;0.10;;;;;;;;;;13373109;21;20930;-79
2024/04/16 16:48:02;;;;;;;1.33;0.50;;;;;;;;;;13374854;21;20411;-80
2024/04/16 16:53:07;;;;;;;0.38;0.20;;;;;;;;;;13367622;21;20669;-79
2024/04/16 16:58:13;;;;;;;0.28;0.20;;;;;;;;;;13375072;21;20392;-75
2024/04/16 17:03:18;;;;;;;1.60;0.20;;;;;;;;;;13374363;21;20340;-80
2024/04/16 17:08:22;;;;;;;1.23;0.10;;;;;;;;;;13374554;21;20492;-79
2024/04/16 17:13:29;;;;;;;0.47;0.20;;;;;;;;;;13376098;21;20399;-80
2024/04/16 17:18:33;;;;;;;0.47;0.30;;;;;;;;;;13378305;21;21041;-81
2024/04/16 17:23:37;;;;;;;0.10;0.10;;;;;;;;;;13387188;22;20429;-78
2024/04/16 17:28:43;;;;;;;1.60;0.40;;;;;;;;;;13392184;22;20876;-80
2024/04/16 17:33:47;;;;;;;0.52;0.10;;;;;;;;;;13389835;22;20414;-80
2024/04/16 17:38:51;;;;;;;0.60;0.20;;;;;;;;;;13388112;22;20702;-80
2024/04/16 17:43:58;;;;;;;0.50;0.28;;;;;;;;;;13384302;22;20473;-79
2024/04/16 17:49:02;;;;;;;0.52;0.35;;;;;;;;;;13382883;22;20429;-79
2024/04/16 17:54:07;;;;;;;2.90;0.30;;;;;;;;;;13387240;22;20348;-80
2024/04/16 17:59:16;;;;;;;1.00;0.10;;;;;;;;;;13382644;22;20367;-79
2024/04/16 18:04:20;;;;;;;0.50;0.30;;;;;;;;;;13379537;22;21162;-81
2024/04/16 18:09:25;;;;;;;0.20;0.10;;;;;;;;;;13364105;22;20320;-79
2024/04/16 18:14:33;;;;;;;0.90;0.60;;;;;;;;;;13371600;22;20323;-80
2024/04/16 18:19:37;;;;;;;0.35;0.10;;;;;;;;;;13370345;21;20324;-80
2024/04/16 18:24:41;;;;;;;0.93;0.15;;;;;;;;;;13366756;21;20379;-80
2024/04/16 18:29:47;;;;;;;0.20;0.20;;;;;;;;;;13371043;21;21189;-80
2024/04/16 18:34:51;;;;;;;0.70;0.20;;;;;;;;;;13366712;21;20494;-80
2024/04/16 18:39:55;;;;;;;0.52;0.30;;;;;;;;;;13368313;21;20916;-79
2024/04/16 18:45:02;;;;;;;1.17;0.20;;;;;;;;;;13366249;21;20343;-80
2024/04/16 18:50:07;;;;;;;0.90;0.20;;;;;;;;;;13369920;21;20395;-79
2024/04/16 18:55:11;;;;;;;0.30;0.30;;;;;;;;;;13371093;21;20460;-79
2024/04/16 19:00:18;;;;;;;0.60;0.10;;;;;;;;;;13368917;21;20560;-81
2024/04/16 19:05:21;;;;;;;0.08;0.08;;;;;;;;;;13369179;21;20699;-81
2024/04/16 19:10:25;;;;;;;0.50;0.20;;;;;;;;;;13369584;22;20823;-80
2024/04/16 19:15:33;;;;;;;0.10;0.10;;;;;;;;;;13367929;21;20339;-81
2024/04/16 19:20:37;;;;;;;0.20;0.10;;;;;;;;;;13365150;21;20806;-80
2024/04/16 19:25:40;;;;;;;0.20;0.10;;;;;;;;;;13373632;21;20457;-80
2024/04/16 19:30:47;;;;;;;0.10;0.10;;;;;;;;;;13372196;21;20394;-80
2024/04/16 19:35:51;;;;;;;0.30;0.15;;;;;;;;;;13370755;21;20391;-80
2024/04/16 19:40:55;;;;;;;0.30;0.20;;;;;;;;;;13370340;21;20336;-80
2024/04/16 19:46:02;;;;;;;0.60;0.30;;;;;;;;;;13370615;21;20399;-83
2024/04/16 19:51:06;;;;;;;0.20;0.20;;;;;;;;;;13369141;21;20934;-81
2024/04/16 19:56:12;;;;;;;0.20;0.20;;;;;;;;;;13371554;21;20794;-82
2024/04/16 20:01:19;;;;;;;0.40;0.20;;;;;;;;;;13371157;21;20331;-81
2024/04/16 20:06:22;;;;;;;0.50;0.17;;;;;;;;;;13370432;21;20928;-81
2024/04/16 20:11:26;;;;;;;0.50;0.20;;;;;;;;;;13369961;21;20394;-81
2024/04/16 20:16:33;;;;;;;0.20;0.17;;;;;;;;;;13365043;22;20323;-81
2024/04/16 20:21:37;;;;;;;0.20;0.20;;;;;;;;;;13367592;21;20332;-82
2024/04/16 20:26:41;;;;;;;0.20;0.17;;;;;;;;;;13367292;21;21185;-82
2024/04/16 20:31:47;;;;;;;0.40;0.10;;;;;;;;;;13372088;21;20394;-80
2024/04/16 20:36:51;;;;;;;0.40;0.20;;;;;;;;;;13373192;21;20928;-81
2024/04/16 20:41:55;;;;;;;0.22;0.20;;;;;;;;;;13373871;21;20438;-81
2024/04/16 20:47:02;;;;;;;0.30;0.20;;;;;;;;;;13373816;21;20383;-81
2024/04/16 20:52:06;;;;;;;1.58;0.20;;;;;;;;;;13372445;21;20415;-79
2024/04/16 20:57:10;;;;;;;0.63;0.30;;;;;;;;;;13365130;21;20488;-82
2024/04/16 21:02:17;;;;;;;0.82;0.25;;;;;;;;;;13366266;21;20343;-81
2024/04/16 21:07:20;;;;;;;0.32;0.30;;;;;;;;;;13367787;21;20399;-81
2024/04/16 21:12:24;;;;;;;0.23;0.20;;;;;;;;;;13369821;21;20408;-81
2024/04/16 21:17:31;;;;;;;0.32;0.30;;;;;;;;;;13372148;22;20425;-82
2024/04/16 21:22:34;;;;;;;0.52;0.40;;;;;;;;;;13375354;22;20428;-80
2024/04/16 21:27:38;;;;;;;1.60;0.52;;;;;;;;;;13373392;21;20457;-81
2024/04/16 21:32:45;;;;;;;0.82;0.47;;;;;;;;;;13374645;21;21130;-81
2024/04/16 21:37:49;;;;;;;1.60;0.40;;;;;;;;;;13363949;21;20339;-81
2024/04/16 21:42:53;;;;;;;1.67;0.40;;;;;;;;;;13381013;22;20440;-81
2024/04/16 21:48:00;;;;;;;1.10;0.40;;;;;;;;;;13383798;22;20371;-81
2024/04/16 21:53:03;;;;;;;0.37;0.30;;;;;;;;;;13380702;22;20371;-82
2024/04/16 21:58:07;;;;;;;1.50;0.43;;;;;;;;;;13383811;22;20998;-81
2024/04/16 22:03:14;;;;;;;1.95;0.30;;;;;;;;;;13384620;22;20452;-81
2024/04/16 22:08:18;;;;;;;0.80;0.40;;;;;;;;;;13390352;22;20830;-81
2024/04/16 22:13:22;;;;;;;0.70;0.40;;;;;;;;;;13390091;22;20371;-82
2024/04/16 22:18:29;;;;;;;0.75;0.40;;;;;;;;;;13388996;22;20320;-82
2024/04/16 22:23:33;;;;;;;0.30;0.30;;;;;;;;;;13389039;22;20367;-81
2024/04/16 22:28:38;;;;;;;0.90;0.30;;;;;;;;;;13390034;22;20933;-80
2024/04/16 22:33:45;;;;;;;0.30;0.30;;;;;;;;;;13387782;22;20409;-81
2024/04/16 22:38:48;;;;;;;0.30;0.30;;;;;;;;;;13389443;22;20431;-80
2024/04/16 22:43:52;;;;;;;0.22;0.22;;;;;;;;;;13389091;22;20375;-80
2024/04/16 22:48:59;;;;;;;0.37;0.30;;;;;;;;;;13389912;22;20351;-81
2024/04/16 22:54:03;;;;;;;0.70;0.30;;;;;;;;;;13388025;22;20383;-80
2024/04/16 22:59:07;;;;;;;1.45;0.60;;;;;;;;;;13389580;22;20335;-81
2024/04/16 23:04:13;;;;;;;2.50;0.50;;;;;;;;;;13388292;22;20444;-80
2024/04/16 23:09:17;;;;;;;0.50;0.40;;;;;;;;;;13387455;22;20331;-81
2024/04/16 23:14:21;;;;;;;0.47;0.40;;;;;;;;;;13390016;22;20433;-80
2024/04/16 23:19:27;;;;;;;0.70;0.30;;;;;;;;;;13389582;22;20961;-80
2024/04/16 23:24:31;;;;;;;0.60;0.30;;;;;;;;;;13388340;22;20423;-80
2024/04/16 23:29:35;;;;;;;0.90;0.40;;;;;;;;;;13387184;22;20518;-80
2024/04/16 23:34:42;;;;;;;1.80;0.38;;;;;;;;;;13386731;22;21042;-80
2024/04/16 23:39:46;;;;;;;1.20;0.40;;;;;;;;;;13387142;22;20687;-80
2024/04/16 23:44:50;;;;;;;2.03;0.60;;;;;;;;;;13387882;22;21114;-80
2024/04/16 23:49:56;;;;;;;0.50;0.40;;;;;;;;;;13384753;22;20711;-81
2024/04/16 23:55:00;;;;;;;1.20;0.40;;;;;;;;;;13389364;22;20339;-80
